createdAt,value
2022-08-17T00:00:09.156Z,24.60
2022-08-17T00:02:59.687Z,24.60
2022-08-17T00:05:29.021Z,24.50
2022-08-17T00:07:56.558Z,24.50
2022-08-17T00:10:23.586Z,24.50
2022-08-17T00:12:50.836Z,24.50
2022-08-17T00:15:21.076Z,24.50
2022-08-17T00:17:51.003Z,24.40
2022-08-17T00:20:19.856Z,24.40
2022-08-17T00:22:50.595Z,24.40
2022-08-17T00:25:20.083Z,24.40
2022-08-17T00:27:47.262Z,24.40
2022-08-17T00:30:14.486Z,24.40
2022-08-17T00:33:15.478Z,24.40
2022-08-17T00:35:32.809Z,24.40
2022-08-17T00:37:59.742Z,24.30
2022-08-17T00:40:27.066Z,24.40
2022-08-17T00:43:27.763Z,24.30
2022-08-17T00:45:55.266Z,24.30
2022-08-17T00:48:29.928Z,24.30
2022-08-17T00:51:07.434Z,24.30
2022-08-17T00:53:39.895Z,24.20
2022-08-17T00:56:13.078Z,24.00
2022-08-17T00:58:41.009Z,24.00
2022-08-17T01:01:10.167Z,23.90
2022-08-17T01:03:39.141Z,23.80
2022-08-17T01:06:07.968Z,23.70
2022-08-17T01:08:38.466Z,23.60
2022-08-17T01:11:07.527Z,23.50
2022-08-17T01:13:41.801Z,23.60
2022-08-17T01:16:31.038Z,23.60
2022-08-17T01:19:16.345Z,23.60
2022-08-17T01:22:17.549Z,23.70
2022-08-17T01:24:50.762Z,23.80
2022-08-17T01:27:20.693Z,23.70
2022-08-17T01:29:52.178Z,23.60
2022-08-17T01:32:20.170Z,23.50
2022-08-17T01:34:50.664Z,23.20
2022-08-17T01:37:21.045Z,23.00
2022-08-17T01:39:57.971Z,23.00
2022-08-17T01:42:39.929Z,22.90
2022-08-17T01:45:18.828Z,22.80
2022-08-17T01:47:45.870Z,22.70
2022-08-17T01:50:29.452Z,22.80
2022-08-17T01:53:09.867Z,22.70
2022-08-17T01:55:47.990Z,22.70
2022-08-17T01:58:15.198Z,22.40
2022-08-17T02:00:46.625Z,22.30
2022-08-17T02:03:28.917Z,22.30
2022-08-17T02:05:56.498Z,22.40
2022-08-17T02:08:38.896Z,22.50
2022-08-17T02:11:15.734Z,22.60
2022-08-17T02:13:44.818Z,22.70
2022-08-17T02:16:12.435Z,22.80
2022-08-17T02:18:39.488Z,23.00
2022-08-17T02:21:07.689Z,23.10
2022-08-17T02:23:41.279Z,23.00
2022-08-17T02:26:08.313Z,22.90
2022-08-17T02:28:35.545Z,22.90
2022-08-17T02:31:10.009Z,23.00
2022-08-17T02:33:43.162Z,23.00
2022-08-17T02:36:12.602Z,23.10
2022-08-17T02:38:41.087Z,23.00
2022-08-17T02:41:08.704Z,23.00
2022-08-17T02:43:35.859Z,22.80
2022-08-17T02:46:02.803Z,22.50
2022-08-17T02:48:31.369Z,22.30
2022-08-17T02:51:00.239Z,22.20
2022-08-17T02:53:35.585Z,22.00
2022-08-17T02:56:03.675Z,22.10
2022-08-17T02:58:34.726Z,22.20
2022-08-17T03:01:08.363Z,22.20
2022-08-17T03:03:37.608Z,22.10
2022-08-17T03:06:06.111Z,22.00
2022-08-17T03:08:34.572Z,22.00
2022-08-17T03:11:01.604Z,22.10
2022-08-17T03:13:28.629Z,22.30
2022-08-17T03:15:55.662Z,22.30
2022-08-17T03:18:24.918Z,22.50
2022-08-17T03:20:59.388Z,22.40
2022-08-17T03:23:27.951Z,22.20
2022-08-17T03:25:56.806Z,22.10
2022-08-17T03:28:26.227Z,22.10
2022-08-17T03:30:53.261Z,22.20
2022-08-17T03:33:20.621Z,22.30
2022-08-17T03:35:48.221Z,22.40
2022-08-17T03:38:17.155Z,22.40
2022-08-17T03:40:57.287Z,22.50
2022-08-17T03:43:30.763Z,22.50
2022-08-17T03:46:28.917Z,22.40
2022-08-17T03:49:26.163Z,22.40
2022-08-17T03:52:13.873Z,22.30
2022-08-17T03:55:01.465Z,22.40
2022-08-17T03:57:29.120Z,22.40
2022-08-17T03:59:56.224Z,22.40
2022-08-17T04:02:30.383Z,22.30
2022-08-17T04:04:58.128Z,22.30
2022-08-17T04:07:28.655Z,22.20
2022-08-17T04:09:55.781Z,22.10
2022-08-17T04:12:24.068Z,22.10
2022-08-17T04:14:53.783Z,22.20
2022-08-17T04:17:25.410Z,22.00
2022-08-17T04:19:53.512Z,21.70
2022-08-17T04:22:33.121Z,21.20
2022-08-17T04:25:18.199Z,20.80
2022-08-17T04:27:45.148Z,20.40
2022-08-17T04:30:12.608Z,20.20
2022-08-17T04:33:03.494Z,20.10
2022-08-17T04:35:47.834Z,20.10
2022-08-17T04:38:19.188Z,20.00
2022-08-17T04:41:05.040Z,20.00
2022-08-17T04:43:34.011Z,20.40
2022-08-17T04:46:16.877Z,20.90
2022-08-17T04:48:50.391Z,21.20
2022-08-17T04:51:25.366Z,21.40
2022-08-17T04:53:58.844Z,21.50
2022-08-17T04:56:27.299Z,21.80
2022-08-17T04:58:58.775Z,22.00
2022-08-17T05:01:29.518Z,22.20
2022-08-17T05:04:00.219Z,22.00
2022-08-17T05:06:46.688Z,22.10
2022-08-17T05:09:13.782Z,22.00
2022-08-17T05:11:44.815Z,22.10
2022-08-17T05:14:12.726Z,22.10
2022-08-17T05:16:39.685Z,22.10
2022-08-17T05:19:06.778Z,21.90
2022-08-17T05:21:33.714Z,21.90
2022-08-17T05:24:00.793Z,21.70
2022-08-17T05:26:32.966Z,21.60
2022-08-17T05:29:03.499Z,21.60
2022-08-17T05:31:31.427Z,21.50
2022-08-17T05:33:58.886Z,21.50
2022-08-17T05:36:42.331Z,21.50
2022-08-17T05:39:16.299Z,21.60
2022-08-17T05:41:44.868Z,21.50
2022-08-17T05:44:11.838Z,21.50
2022-08-17T05:46:43.982Z,21.50
2022-08-17T05:49:12.997Z,21.60
2022-08-17T05:52:18.790Z,21.70
2022-08-17T05:55:21.106Z,21.60
2022-08-17T05:58:15.247Z,21.50
2022-08-17T06:00:56.669Z,21.40
2022-08-17T06:03:53.275Z,21.40
2022-08-17T06:06:56.534Z,21.40
2022-08-17T06:09:49.751Z,21.50
2022-08-17T06:12:47.854Z,21.50
2022-08-17T06:16:02.610Z,21.50
2022-08-17T06:18:57.666Z,21.50
2022-08-17T06:21:30.482Z,21.50
2022-08-17T06:24:34.144Z,21.50
2022-08-17T06:27:36.861Z,21.50
2022-08-17T06:30:12.034Z,21.60
2022-08-17T06:32:50.981Z,21.70
2022-08-17T06:35:34.153Z,21.70
2022-08-17T06:38:37.030Z,21.80
2022-08-17T06:41:19.332Z,21.90
2022-08-17T06:44:07.630Z,21.90
2022-08-17T06:46:48.481Z,22.00
2022-08-17T06:49:28.638Z,22.10
2022-08-17T06:52:07.815Z,22.20
2022-08-17T06:54:50.020Z,22.40
2022-08-17T06:57:25.583Z,22.60
2022-08-17T07:00:10.338Z,22.90
2022-08-17T07:02:55.664Z,23.20
2022-08-17T07:05:32.935Z,23.40
2022-08-17T07:08:06.140Z,23.60
2022-08-17T07:10:53.108Z,23.90
2022-08-17T07:13:51.167Z,24.10
2022-08-17T07:16:33.568Z,24.30
2022-08-17T07:19:00.601Z,24.50
2022-08-17T07:22:07.849Z,24.70
2022-08-17T07:24:58.354Z,24.80
2022-08-17T07:27:35.543Z,24.90
2022-08-17T07:30:31.832Z,25.00
2022-08-17T07:33:27.849Z,25.00
2022-08-17T07:35:58.095Z,25.00
2022-08-17T07:38:34.097Z,25.20
2022-08-17T07:41:05.093Z,25.40
2022-08-17T07:43:37.969Z,25.70
2022-08-17T07:46:51.562Z,25.90
2022-08-17T07:49:41.127Z,26.30
2022-08-17T07:52:50.716Z,26.70
2022-08-17T07:55:31.828Z,27.00
2022-08-17T07:58:00.109Z,27.20
2022-08-17T08:00:31.495Z,27.10
2022-08-17T08:03:21.826Z,26.90
2022-08-17T08:06:01.980Z,26.80
2022-08-17T08:08:42.234Z,26.90
2022-08-17T08:11:15.356Z,27.00
2022-08-17T08:13:45.547Z,27.10
2022-08-17T08:16:29.104Z,27.10
2022-08-17T08:19:01.482Z,27.10
2022-08-17T08:21:59.013Z,27.10
2022-08-17T08:25:08.440Z,27.10
2022-08-17T08:28:16.679Z,27.30
2022-08-17T08:30:57.683Z,27.50
2022-08-17T08:34:09.277Z,27.50
2022-08-17T08:37:32.870Z,27.50
2022-08-17T08:40:35.444Z,27.60
2022-08-17T08:43:29.296Z,27.60
2022-08-17T08:46:15.845Z,27.70
2022-08-17T08:49:12.500Z,27.60
2022-08-17T08:51:57.943Z,27.80
2022-08-17T08:54:35.646Z,28.10
2022-08-17T08:57:26.952Z,28.30
2022-08-17T09:00:21.612Z,28.40
2022-08-17T09:03:20.144Z,28.50
2022-08-17T09:06:37.353Z,28.50
2022-08-17T09:09:29.185Z,28.50
2022-08-17T09:12:13.946Z,28.50
2022-08-17T09:15:12.300Z,28.60
2022-08-17T09:18:08.584Z,28.70
2022-08-17T09:21:03.350Z,28.60
2022-08-17T09:24:02.296Z,28.50
2022-08-17T09:26:39.403Z,28.50
2022-08-17T09:29:13.682Z,28.60
2022-08-17T09:32:03.579Z,28.70
2022-08-17T09:34:39.636Z,28.90
2022-08-17T09:37:48.480Z,29.00
2022-08-17T09:40:50.648Z,29.00
2022-08-17T09:43:59.331Z,29.00
2022-08-17T09:46:34.647Z,29.00
2022-08-17T09:49:28.488Z,29.00
2022-08-17T09:52:03.274Z,29.00
2022-08-17T09:54:39.473Z,29.20
2022-08-17T09:57:45.505Z,29.40
2022-08-17T10:00:17.345Z,29.50
2022-08-17T10:03:22.049Z,29.70
2022-08-17T10:06:21.340Z,29.80
2022-08-17T10:09:18.410Z,30.00
2022-08-17T10:12:20.556Z,30.20
2022-08-17T10:15:17.845Z,30.30
2022-08-17T10:18:10.111Z,30.30
2022-08-17T10:20:52.532Z,30.50
2022-08-17T10:23:46.859Z,30.70
2022-08-17T10:26:21.193Z,30.70
2022-08-17T10:28:55.998Z,30.70
2022-08-17T10:31:40.532Z,30.70
2022-08-17T10:34:54.855Z,30.80
2022-08-17T10:37:59.193Z,31.00
2022-08-17T10:40:43.372Z,31.10
2022-08-17T10:43:57.843Z,31.10
2022-08-17T10:47:15.290Z,31.00
2022-08-17T10:49:49.542Z,30.90
2022-08-17T10:52:42.415Z,30.90
2022-08-17T10:55:16.580Z,30.80
2022-08-17T10:57:47.080Z,30.60
2022-08-17T11:00:39.829Z,30.50
2022-08-17T11:03:26.487Z,30.50
2022-08-17T11:06:12.671Z,30.50
2022-08-17T11:09:14.097Z,30.50
2022-08-17T11:12:06.119Z,30.50
2022-08-17T11:15:10.055Z,30.70
2022-08-17T11:18:01.523Z,30.80
2022-08-17T11:21:20.697Z,31.00
2022-08-17T11:24:37.900Z,31.10
2022-08-17T11:27:27.675Z,31.10
2022-08-17T11:30:01.775Z,31.10
2022-08-17T11:32:47.783Z,31.20
2022-08-17T11:35:21.604Z,31.40
2022-08-17T11:38:29.290Z,31.60
2022-08-17T11:41:30.029Z,31.80
2022-08-17T11:44:24.309Z,32.10
2022-08-17T11:47:35.055Z,32.30
2022-08-17T11:51:07.331Z,32.30
2022-08-17T11:53:39.759Z,32.30
2022-08-17T11:56:11.952Z,32.20
2022-08-17T11:58:41.481Z,32.00
2022-08-17T12:01:15.988Z,32.00
2022-08-17T12:03:54.049Z,32.00
2022-08-17T12:06:49.123Z,32.00
2022-08-17T12:09:17.768Z,32.00
2022-08-17T12:12:12.081Z,32.00
2022-08-17T12:17:40.434Z,31.80
2022-08-17T12:20:37.964Z,31.50
2022-08-17T12:23:24.347Z,31.50
2022-08-17T12:26:06.197Z,31.40
2022-08-17T12:28:39.161Z,31.30
2022-08-17T12:31:16.511Z,31.20
2022-08-17T12:33:45.976Z,31.20
2022-08-17T12:36:16.670Z,31.10
2022-08-17T12:39:14.247Z,31.10
2022-08-17T12:41:51.980Z,31.30
2022-08-17T12:44:35.901Z,31.30
2022-08-17T12:47:22.346Z,31.30
2022-08-17T12:49:53.477Z,31.30
2022-08-17T12:52:28.397Z,31.30
2022-08-17T12:55:06.914Z,31.30
2022-08-17T12:57:46.576Z,31.50
2022-08-17T13:00:22.348Z,31.50
2022-08-17T13:03:07.890Z,31.50
2022-08-17T13:05:54.558Z,31.50
2022-08-17T13:08:30.706Z,31.50
2022-08-17T13:11:03.348Z,31.50
2022-08-17T13:13:38.945Z,31.30
2022-08-17T13:16:10.261Z,31.30
2022-08-17T13:18:39.949Z,31.20
2022-08-17T13:21:30.295Z,31.20
2022-08-17T13:24:13.698Z,31.10
2022-08-17T13:26:47.554Z,31.00
2022-08-17T13:29:39.562Z,30.90
2022-08-17T13:32:09.631Z,30.90
2022-08-17T13:35:12.245Z,30.90
2022-08-17T13:37:36.774Z,30.80
2022-08-17T13:40:10.108Z,30.70
2022-08-17T13:42:51.879Z,30.80
2022-08-17T13:45:36.571Z,30.80
2022-08-17T13:48:16.208Z,30.80
2022-08-17T13:51:13.669Z,30.70
2022-08-17T13:53:40.623Z,30.70
2022-08-17T13:56:31.786Z,30.60
2022-08-17T13:59:52.965Z,30.60
2022-08-17T14:02:19.534Z,30.60
2022-08-17T14:04:48.024Z,30.60
2022-08-17T14:07:15.930Z,30.60
2022-08-17T14:09:57.846Z,30.60
2022-08-17T14:12:28.186Z,30.60
2022-08-17T14:14:56.411Z,30.70
2022-08-17T14:17:24.552Z,30.60
2022-08-17T14:19:53.246Z,30.70
2022-08-17T14:22:30.413Z,30.70
2022-08-17T14:24:59.197Z,30.80
2022-08-17T14:27:28.098Z,30.90
2022-08-17T14:29:56.378Z,31.00
2022-08-17T14:32:31.292Z,31.00
2022-08-17T14:35:00.774Z,30.90
2022-08-17T14:37:29.269Z,30.90
2022-08-17T14:40:02.711Z,31.00
2022-08-17T14:42:33.371Z,31.10
2022-08-17T14:45:05.965Z,31.20
2022-08-17T14:47:34.795Z,31.30
2022-08-17T14:50:03.125Z,31.30
2022-08-17T14:52:37.313Z,31.20
2022-08-17T14:55:05.314Z,31.10
2022-08-17T14:57:34.350Z,31.10
2022-08-17T15:00:02.891Z,31.00
2022-08-17T15:02:30.929Z,30.90
2022-08-17T15:05:06.212Z,30.90
2022-08-17T15:07:33.262Z,30.80
2022-08-17T15:10:01.583Z,30.70
2022-08-17T15:12:33.286Z,30.60
2022-08-17T15:15:06.231Z,30.50
2022-08-17T15:17:44.757Z,30.50
2022-08-17T15:20:23.700Z,30.50
2022-08-17T15:22:55.346Z,30.30
2022-08-17T15:25:24.283Z,30.30
2022-08-17T15:27:51.688Z,30.30
2022-08-17T15:30:19.178Z,30.30
2022-08-17T15:32:51.348Z,30.20
2022-08-17T15:35:28.305Z,30.30
2022-08-17T15:37:58.390Z,30.20
2022-08-17T15:40:25.400Z,30.20
2022-08-17T15:42:52.910Z,30.10
2022-08-17T15:45:24.821Z,30.10
2022-08-17T15:47:52.820Z,29.90
2022-08-17T15:50:19.969Z,29.90
2022-08-17T15:52:47.534Z,29.80
2022-08-17T15:55:16.142Z,29.80
2022-08-17T15:57:44.107Z,29.80
2022-08-17T16:00:11.416Z,29.80
2022-08-17T16:03:44.961Z,29.80
2022-08-17T16:05:35.195Z,29.80
2022-08-17T16:08:02.311Z,29.80
2022-08-17T16:10:34.770Z,29.80
2022-08-17T16:13:04.061Z,29.80
2022-08-17T16:15:39.435Z,29.90
2022-08-17T16:18:06.450Z,30.00
2022-08-17T16:20:51.007Z,30.10
2022-08-17T16:23:20.197Z,30.40
2022-08-17T16:25:53.085Z,30.60
2022-08-17T16:28:23.221Z,30.50
2022-08-17T16:31:03.757Z,30.60
2022-08-17T16:33:31.375Z,30.60
2022-08-17T16:35:58.583Z,30.50
2022-08-17T16:38:25.548Z,30.30
2022-08-17T16:40:52.582Z,30.30
2022-08-17T16:43:20.094Z,30.20
2022-08-17T16:45:51.813Z,30.10
2022-08-17T16:48:19.717Z,30.10
2022-08-17T16:51:03.041Z,30.00
2022-08-17T16:53:30.697Z,30.00
2022-08-17T16:55:57.783Z,30.00
2022-08-17T16:58:24.810Z,30.00
2022-08-17T17:00:51.825Z,30.00
2022-08-17T17:03:24.973Z,29.90
2022-08-17T17:06:15.611Z,29.90
2022-08-17T17:09:24.781Z,29.80
2022-08-17T17:11:59.054Z,29.60
2022-08-17T17:14:30.566Z,29.60
2022-08-17T17:17:06.587Z,29.60
2022-08-17T17:19:59.281Z,29.50
2022-08-17T17:23:08.823Z,29.40
2022-08-17T17:25:55.329Z,29.40
2022-08-17T17:29:04.903Z,29.40
2022-08-17T17:32:05.798Z,29.60
2022-08-17T17:34:35.003Z,29.50
2022-08-17T17:37:15.252Z,29.60
2022-08-17T17:39:53.001Z,29.60
2022-08-17T17:42:25.025Z,29.60
2022-08-17T17:45:12.740Z,29.60
2022-08-17T17:47:40.138Z,29.70
2022-08-17T17:50:08.473Z,29.50
2022-08-17T17:53:00.916Z,29.50
2022-08-17T17:55:42.694Z,29.40
2022-08-17T17:58:36.121Z,29.30
2022-08-17T18:01:59.241Z,29.20
2022-08-17T18:04:40.735Z,29.20
2022-08-17T18:07:18.095Z,29.20
2022-08-17T18:10:29.872Z,29.10
2022-08-17T18:13:21.299Z,29.00
2022-08-17T18:15:54.396Z,29.00
2022-08-17T18:18:39.079Z,28.80
2022-08-17T18:21:16.775Z,28.70
2022-08-17T18:24:06.318Z,28.70
2022-08-17T18:26:33.230Z,28.70
2022-08-17T18:29:02.211Z,28.60
2022-08-17T18:31:29.492Z,28.60
2022-08-17T18:37:16.111Z,28.40
2022-08-17T18:39:46.489Z,28.30
2022-08-17T18:42:26.824Z,28.30
2022-08-17T18:44:55.486Z,28.20
2022-08-17T18:47:29.518Z,28.10
2022-08-17T18:50:20.331Z,28.00
2022-08-17T18:52:56.058Z,27.90
2022-08-17T18:55:27.750Z,27.80
2022-08-17T18:58:15.133Z,27.80
2022-08-17T19:00:46.163Z,27.70
2022-08-17T19:03:16.111Z,27.60
2022-08-17T19:06:24.963Z,27.50
2022-08-17T19:08:51.910Z,27.40
2022-08-17T19:11:34.435Z,27.40
2022-08-17T19:14:08.861Z,27.30
2022-08-17T19:16:53.562Z,27.20
2022-08-17T19:19:56.444Z,27.20
2022-08-17T19:23:16.924Z,27.10
2022-08-17T19:25:50.033Z,26.90
2022-08-17T19:28:48.494Z,26.80
2022-08-17T19:31:23.483Z,26.80
2022-08-17T19:33:51.081Z,26.70
2022-08-17T19:36:26.153Z,26.60
2022-08-17T19:39:11.212Z,26.40
2022-08-17T19:41:47.973Z,26.30
2022-08-17T19:44:32.908Z,26.20
2022-08-17T19:47:36.177Z,26.00
2022-08-17T19:50:22.100Z,25.90
2022-08-17T19:53:41.971Z,25.80
2022-08-17T19:56:31.595Z,25.70
2022-08-17T19:59:49.411Z,25.80
2022-08-17T20:02:50.273Z,26.00
2022-08-17T20:05:24.721Z,26.10
2022-08-17T20:08:04.042Z,26.00
2022-08-17T20:10:54.439Z,25.90
2022-08-17T20:13:34.024Z,25.80
2022-08-17T20:16:02.643Z,25.70
2022-08-17T20:18:46.122Z,25.60
2022-08-17T20:21:42.714Z,25.40
2022-08-17T20:24:30.945Z,25.30
2022-08-17T20:27:09.634Z,25.20
2022-08-17T20:29:55.086Z,25.10
2022-08-17T20:32:56.648Z,25.00
2022-08-17T20:35:36.815Z,25.10
2022-08-17T20:38:34.013Z,25.10
2022-08-17T20:41:01.393Z,25.10
2022-08-17T20:43:34.285Z,25.00
2022-08-17T20:46:23.529Z,25.10
2022-08-17T20:48:56.935Z,25.20
2022-08-17T20:51:43.013Z,25.30
2022-08-17T20:54:46.001Z,25.30
2022-08-17T20:57:39.110Z,25.30
2022-08-17T21:00:41.193Z,25.20
2022-08-17T21:03:28.572Z,24.90
2022-08-17T21:06:18.787Z,24.70
2022-08-17T21:08:57.591Z,24.50
2022-08-17T21:12:00.065Z,24.40
2022-08-17T21:14:44.745Z,24.20
2022-08-17T21:17:39.715Z,24.10
2022-08-17T21:20:33.827Z,24.00
2022-08-17T21:23:10.217Z,23.90
2022-08-17T21:26:04.506Z,23.90
2022-08-17T21:29:30.451Z,23.90
2022-08-17T21:31:59.582Z,23.90
2022-08-17T21:34:43.041Z,23.70
2022-08-17T21:37:22.296Z,23.70
2022-08-17T21:40:00.761Z,23.70
2022-08-17T21:42:34.662Z,23.60
2022-08-17T21:45:27.160Z,23.50
2022-08-17T21:48:20.868Z,23.40
2022-08-17T21:51:19.210Z,23.20
2022-08-17T21:53:57.181Z,23.10
2022-08-17T21:56:33.460Z,23.10
2022-08-17T21:59:05.322Z,23.10
2022-08-17T22:01:37.050Z,23.00
2022-08-17T22:04:11.378Z,23.00
2022-08-17T22:06:56.978Z,23.00
2022-08-17T22:09:31.995Z,23.00
2022-08-17T22:12:11.228Z,22.90
2022-08-17T22:14:52.107Z,22.80
2022-08-17T22:17:36.463Z,22.80
2022-08-17T22:20:14.874Z,22.70
2022-08-17T22:23:20.151Z,22.60
2022-08-17T22:26:03.644Z,22.50
2022-08-17T22:28:49.054Z,22.40
2022-08-17T22:31:26.611Z,22.30
2022-08-17T22:33:59.869Z,22.30
2022-08-17T22:36:29.010Z,22.20
2022-08-17T22:39:07.369Z,22.20
2022-08-17T22:41:57.077Z,22.10
2022-08-17T22:44:29.444Z,22.10
2022-08-17T22:47:29.346Z,22.00
2022-08-17T22:50:01.012Z,21.90
2022-08-17T22:52:35.593Z,21.80
2022-08-17T22:55:45.012Z,21.80
2022-08-17T22:58:35.689Z,21.70
2022-08-17T23:01:23.225Z,21.70
2022-08-17T23:04:36.601Z,21.70
2022-08-17T23:07:03.582Z,21.50
2022-08-17T23:09:30.470Z,21.50
2022-08-17T23:11:58.705Z,21.50
2022-08-17T23:14:31.926Z,21.50
2022-08-17T23:16:59.483Z,21.40
2022-08-17T23:19:28.397Z,21.40
2022-08-17T23:21:57.631Z,21.30
2022-08-17T23:24:28.737Z,21.30
2022-08-17T23:26:58.284Z,21.20
2022-08-17T23:29:29.399Z,21.20
2022-08-17T23:31:59.647Z,21.10
2022-08-17T23:34:28.074Z,21.10
2022-08-17T23:36:55.898Z,21.10
2022-08-17T23:39:27.455Z,21.10
2022-08-17T23:42:00.282Z,21.10
2022-08-17T23:44:28.858Z,21.10
2022-08-17T23:46:55.930Z,21.00
2022-08-17T23:49:25.072Z,21.00
2022-08-17T23:51:54.594Z,21.00
2022-08-17T23:54:46.550Z,20.90
2022-08-17T23:57:20.870Z,20.90
